Time;durP1;ratioP1;P1;durP2;ratioP2;P2;SDS_P1;SDS_P2;PMS_P1;PMS_P2;Temp;Humidity;BMP_temperature;BMP_pressure;BME280_temperature;BME280_humidity;BME280_pressure;Samples;Min_cycle;Max_cycle;Signal;HPM_P1;HPM_P2
2022/11/11 00:01:16;;;;;;;10.20;5.45;;;8.00;99.90;;;;;;4974297;28;20030;-66
2022/11/11 00:03:43;;;;;;;14.98;5.38;;;7.90;99.90;;;;;;4972922;28;20053;-66
2022/11/11 00:06:11;;;;;;;13.30;5.60;;;7.60;99.90;;;;;;4957751;28;20034;-66
2022/11/11 00:08:36;;;;;;;10.85;4.78;;;7.50;99.90;;;;;;4957769;28;20027;-66
2022/11/11 00:11:05;;;;;;;12.02;5.70;;;7.40;99.90;;;;;;4956744;28;20114;-66
2022/11/11 00:13:32;;;;;;;21.20;6.78;;;7.30;99.90;;;;;;4957130;29;20030;-66
2022/11/11 00:16:24;;;;;;;24.25;7.03;;;7.30;99.90;;;;;;4958244;28;20482;-66
2022/11/11 00:27:14;;;;;;;40.85;9.25;;;7.40;99.90;;;;;;4958014;29;20119;-66
2022/11/11 00:29:40;;;;;;;29.38;9.52;;;7.50;99.90;;;;;;4974930;28;20031;-66
2022/11/11 00:32:22;;;;;;;38.85;9.63;;;7.60;99.90;;;;;;4958307;28;20031;-66
2022/11/11 00:37:34;;;;;;;33.03;8.73;;;7.90;99.90;;;;;;4957911;29;20043;-66
2022/11/11 00:39:59;;;;;;;32.97;8.73;;;8.10;99.90;;;;;;4957052;28;20042;-66
2022/11/11 00:42:26;;;;;;;33.80;10.18;;;8.20;99.90;;;;;;4957568;28;20114;-66
2022/11/11 00:44:51;;;;;;;38.25;10.48;;;8.20;99.90;;;;;;4957288;29;20035;-66
2022/11/11 00:52:46;;;;;;;89.18;12.38;;;8.20;99.90;;;;;;4960410;29;20082;-66
2022/11/11 00:55:13;;;;;;;71.95;11.48;;;8.00;99.90;;;;;;4959533;29;20032;-66
2022/11/11 00:57:40;;;;;;;45.53;10.48;;;7.90;99.90;;;;;;4959418;29;20065;-66
2022/11/11 01:00:06;;;;;;;51.85;10.77;;;7.90;99.90;;;;;;4957507;29;20030;-66
2022/11/11 01:02:31;;;;;;;24.38;9.48;;;7.80;99.90;;;;;;4956820;28;20027;-66
2022/11/11 01:04:57;;;;;;;29.25;8.90;;;7.90;99.90;;;;;;4956305;28;20027;-66
2022/11/11 01:07:23;;;;;;;33.60;9.82;;;8.00;99.90;;;;;;4956637;28;20058;-66
2022/11/11 01:09:49;;;;;;;36.55;9.50;;;8.10;99.90;;;;;;4955500;29;20031;-66
2022/11/11 01:12:14;;;;;;;25.17;9.82;;;8.20;99.90;;;;;;4955524;28;20027;-66
2022/11/11 01:14:40;;;;;;;29.70;10.20;;;8.30;99.90;;;;;;4972380;28;20032;-66
2022/11/11 01:17:05;;;;;;;31.48;10.27;;;8.40;99.90;;;;;;4956350;29;20031;-66
2022/11/11 01:19:31;;;;;;;36.67;10.18;;;8.40;99.90;;;;;;4955451;29;20031;-66
2022/11/11 01:21:57;;;;;;;29.52;9.90;;;8.50;99.90;;;;;;4955184;28;20042;-66
2022/11/11 01:24:23;;;;;;;38.65;10.38;;;8.50;99.90;;;;;;4955290;29;20034;-66
2022/11/11 01:26:49;;;;;;;81.30;13.07;;;8.50;99.90;;;;;;4954898;29;20031;-66
2022/11/11 01:29:15;;;;;;;44.10;10.80;;;8.30;99.90;;;;;;4956215;29;20023;-66
2022/11/11 01:31:40;;;;;;;44.60;10.15;;;8.10;99.90;;;;;;4954716;28;20019;-66
2022/11/11 01:34:06;;;;;;;50.10;9.93;;;7.90;99.90;;;;;;4956592;29;20104;-66
2022/11/11 01:36:32;;;;;;;58.08;8.85;;;7.90;99.90;;;;;;4956059;29;20095;-65
2022/11/11 01:38:59;;;;;;;40.63;8.88;;;7.90;99.90;;;;;;4957165;28;20035;-66
2022/11/11 01:41:31;;;;;;;42.40;9.80;;;8.10;99.90;;;;;;4955637;28;20121;-66
2022/11/11 01:44:09;;;;;;;37.30;10.10;;;8.20;99.90;;;;;;4956196;28;20037;-66
2022/11/11 01:46:41;;;;;;;38.72;10.73;;;8.20;99.90;;;;;;4955947;29;20024;-66
2022/11/11 01:49:20;;;;;;;37.53;10.27;;;8.20;99.90;;;;;;4956509;29;20034;-66
2022/11/11 01:52:07;;;;;;;34.88;9.95;;;8.20;99.90;;;;;;4957056;28;20027;-66
2022/11/11 01:54:38;;;;;;;15.95;7.07;;;8.30;99.90;;;;;;4956254;28;20027;-66
2022/11/11 01:57:41;;;;;;;35.45;10.18;;;8.40;99.90;;;;;;4955458;29;20027;-66
2022/11/11 02:00:14;;;;;;;21.50;9.40;;;8.60;99.90;;;;;;4956518;28;20031;-66
2022/11/11 02:02:44;;;;;;;34.95;10.95;;;8.60;99.90;;;;;;4956915;28;20062;-66
2022/11/11 02:07:59;;;;;;;35.65;9.95;;;8.40;99.90;;;;;;4957464;29;20064;-66
2022/11/11 02:10:27;;;;;;;38.95;9.73;;;8.30;99.90;;;;;;4955615;28;20437;-66
2022/11/11 02:15:37;;;;;;;47.22;9.40;;;8.20;99.90;;;;;;4955713;29;20139;-66
2022/11/11 02:18:03;;;;;;;25.15;9.40;;;8.20;99.90;;;;;;4954183;28;20059;-66
2022/11/11 02:20:34;;;;;;;58.00;10.07;;;8.20;99.90;;;;;;4970168;28;20117;-66
2022/11/11 02:23:00;;;;;;;50.78;11.52;;;8.10;99.90;;;;;;4954183;29;20032;-66
2022/11/11 02:25:29;;;;;;;49.67;9.32;;;8.20;99.90;;;;;;4953962;29;20027;-66
2022/11/11 02:27:59;;;;;;;27.20;8.95;;;8.10;99.90;;;;;;4954050;29;20099;-66
2022/11/11 02:30:24;;;;;;;50.90;10.27;;;8.10;99.90;;;;;;4954258;28;20435;-66
2022/11/11 02:32:51;;;;;;;25.65;10.25;;;8.00;99.90;;;;;;4954078;29;20024;-66
2022/11/11 02:35:24;;;;;;;46.03;10.40;;;8.00;99.90;;;;;;4955483;29;20479;-66
2022/11/11 02:37:52;;;;;;;26.33;9.63;;;8.10;99.90;;;;;;4954913;29;20028;-66
2022/11/11 02:43:27;;;;;;;37.03;10.25;;;8.00;99.90;;;;;;4955244;29;20039;-66
2022/11/11 02:45:53;;;;;;;51.67;8.68;;;8.00;99.90;;;;;;4953925;29;20031;-66
2022/11/11 02:48:19;;;;;;;37.90;9.52;;;8.00;99.90;;;;;;4970325;28;20023;-66
2022/11/11 02:50:44;;;;;;;32.03;9.23;;;8.00;99.90;;;;;;4955332;28;20024;-66
2022/11/11 02:53:10;;;;;;;39.20;10.60;;;8.10;99.90;;;;;;4953933;29;20118;-66
2022/11/11 02:55:36;;;;;;;50.80;9.88;;;8.10;99.90;;;;;;4953761;29;20034;-66
2022/11/11 02:58:01;;;;;;;20.63;8.20;;;8.20;99.90;;;;;;4953837;29;20164;-66
2022/11/11 03:00:27;;;;;;;22.27;7.88;;;8.20;99.90;;;;;;4954272;28;20114;-66
2022/11/11 03:02:52;;;;;;;21.10;7.65;;;8.50;99.90;;;;;;4954061;29;20027;-66
2022/11/11 03:05:18;;;;;;;15.27;7.30;;;8.60;99.90;;;;;;4969783;28;20035;-66
2022/11/11 03:07:43;;;;;;;23.20;9.10;;;8.80;99.90;;;;;;4954169;29;20031;-66
2022/11/11 03:10:09;;;;;;;32.95;8.60;;;8.90;99.90;;;;;;4955613;28;20463;-66
2022/11/11 03:12:35;;;;;;;49.60;10.68;;;8.60;99.90;;;;;;4954160;28;20027;-66
2022/11/11 03:15:00;;;;;;;25.38;8.98;;;8.40;99.90;;;;;;4954056;29;20031;-66
2022/11/11 03:17:38;;;;;;;106.65;12.63;;;8.20;99.90;;;;;;4955618;28;20059;-66
2022/11/11 03:23:10;;;;;;;56.15;11.38;;;8.10;99.90;;;;;;4955476;29;20034;-66
2022/11/11 03:25:42;;;;;;;35.75;10.10;;;8.10;99.90;;;;;;4955103;29;20426;-66
2022/11/11 03:28:07;;;;;;;46.95;9.98;;;8.10;99.90;;;;;;4955781;28;20055;-66
2022/11/11 03:30:33;;;;;;;34.05;9.05;;;8.00;99.90;;;;;;4973434;28;20055;-66
2022/11/11 03:32:59;;;;;;;29.67;9.73;;;7.90;99.90;;;;;;4958626;28;20062;-66
2022/11/11 03:35:25;;;;;;;22.95;9.05;;;7.80;99.90;;;;;;4958876;28;20027;-66
2022/11/11 03:40:34;;;;;;;54.15;10.95;;;7.70;99.90;;;;;;4958399;28;20082;-66
2022/11/11 03:43:00;;;;;;;34.10;10.10;;;7.70;99.90;;;;;;4957041;29;20031;-66
2022/11/11 03:45:25;;;;;;;49.58;10.90;;;7.80;99.90;;;;;;4958162;29;20079;-66
2022/11/11 03:47:51;;;;;;;23.67;9.70;;;7.70;99.90;;;;;;4957151;29;20023;-66
2022/11/11 03:50:16;;;;;;;39.28;10.30;;;7.80;99.90;;;;;;4958260;28;20030;-66
2022/11/11 03:52:42;;;;;;;27.30;8.27;;;8.00;99.90;;;;;;4957741;29;20127;-66
2022/11/11 03:55:08;;;;;;;21.45;8.65;;;8.20;99.90;;;;;;4957887;28;20027;-66
2022/11/11 03:57:37;;;;;;;33.78;9.98;;;8.20;99.90;;;;;;4956838;29;20038;-66
2022/11/11 04:00:03;;;;;;;22.80;9.27;;;8.40;99.90;;;;;;4956456;29;20086;-66
2022/11/11 04:10:41;;;;;;;38.97;9.70;;;8.10;99.90;;;;;;4957793;28;20031;-66
2022/11/11 04:16:05;;;;;;;28.50;8.55;;;7.70;99.90;;;;;;4958028;29;20038;-66
2022/11/11 04:23:59;;;;;;;20.90;8.02;;;8.20;99.90;;;;;;4957270;29;20034;-66
2022/11/11 04:26:25;;;;;;;15.20;6.85;;;8.00;99.90;;;;;;4957184;28;20027;-66
2022/11/11 04:31:35;;;;;;;19.15;7.85;;;8.30;99.90;;;;;;4957246;28;20030;-66
2022/11/11 04:34:00;;;;;;;18.77;7.45;;;8.50;99.90;;;;;;4955973;29;20024;-66
2022/11/11 04:36:26;;;;;;;35.78;8.55;;;8.60;99.90;;;;;;4956295;29;20031;-66
2022/11/11 04:41:35;;;;;;;40.80;9.00;;;8.30;99.90;;;;;;4956363;28;20042;-66
2022/11/11 04:46:45;;;;;;;46.92;8.52;;;7.90;99.90;;;;;;4957449;29;20034;-66
2022/11/11 04:49:10;;;;;;;38.92;8.05;;;7.60;99.90;;;;;;4955668;29;20023;-66
2022/11/11 04:54:20;;;;;;;33.28;9.13;;;7.60;99.90;;;;;;4957369;29;20034;-66
2022/11/11 04:56:49;;;;;;;19.80;8.48;;;7.80;99.90;;;;;;4971651;28;20031;-66
2022/11/11 04:59:15;;;;;;;30.83;8.77;;;8.10;99.90;;;;;;4971838;28;20459;-66
2022/11/11 05:04:25;;;;;;;32.92;8.63;;;8.00;99.90;;;;;;4956957;29;20051;-66
2022/11/11 05:09:35;;;;;;;23.58;8.23;;;7.90;99.90;;;;;;4956561;29;20106;-66
2022/11/11 05:12:00;;;;;;;18.27;8.07;;;8.00;99.90;;;;;;4971276;28;20067;-66
2022/11/11 05:22:40;;;;;;;25.58;7.80;;;8.00;99.90;;;;;;4956728;28;20160;-66
2022/11/11 05:25:24;;;;;;;43.65;8.82;;;7.80;99.90;;;;;;4970921;28;20027;-66
2022/11/11 05:27:53;;;;;;;28.13;8.40;;;7.60;99.90;;;;;;4956208;28;20129;-66
2022/11/11 05:30:20;;;;;;;50.75;8.93;;;7.70;99.90;;;;;;4955941;28;20023;-66
2022/11/11 05:32:45;;;;;;;29.17;8.55;;;7.60;99.90;;;;;;4954806;29;20034;-66
2022/11/11 05:35:12;;;;;;;33.42;9.10;;;7.40;99.90;;;;;;4954976;29;20023;-66
2022/11/11 05:37:38;;;;;;;19.13;7.80;;;7.40;99.90;;;;;;4954713;29;20023;-66
2022/11/11 05:40:05;;;;;;;24.45;7.65;;;7.50;99.90;;;;;;4971779;28;20348;-66
2022/11/11 05:42:30;;;;;;;20.35;7.13;;;7.70;99.90;;;;;;4956187;28;20046;-66
2022/11/11 05:44:56;;;;;;;19.00;6.82;;;7.80;99.90;;;;;;4954711;29;20028;-66
2022/11/11 05:47:22;;;;;;;21.75;7.85;;;7.70;99.90;;;;;;4955283;29;20031;-66
2022/11/11 05:49:47;;;;;;;25.02;8.13;;;7.70;99.90;;;;;;4955938;28;20031;-66
2022/11/11 05:52:15;;;;;;;19.23;8.07;;;7.80;99.90;;;;;;4955736;28;20094;-66
2022/11/11 05:54:41;;;;;;;24.63;7.72;;;7.80;99.90;;;;;;4956091;28;20051;-66
2022/11/11 05:57:06;;;;;;;18.17;8.15;;;8.00;99.90;;;;;;4954811;29;20055;-66
2022/11/11 05:59:32;;;;;;;17.75;6.85;;;8.20;99.90;;;;;;4956086;28;20113;-66
2022/11/11 06:01:57;;;;;;;17.77;8.20;;;8.40;99.90;;;;;;4970838;28;20027;-66
2022/11/11 06:04:23;;;;;;;19.27;8.00;;;8.50;99.90;;;;;;4954542;29;20123;-66
2022/11/11 06:06:49;;;;;;;24.73;8.65;;;8.50;99.90;;;;;;4954900;29;20227;-66
2022/11/11 06:09:14;;;;;;;23.55;7.75;;;8.60;99.90;;;;;;4954577;29;20035;-66
2022/11/11 06:11:40;;;;;;;26.02;9.00;;;8.50;99.90;;;;;;4955620;28;20027;-66
2022/11/11 06:14:06;;;;;;;25.80;7.95;;;8.50;99.90;;;;;;4954851;29;20069;-66
2022/11/11 06:16:31;;;;;;;27.73;8.18;;;8.50;99.90;;;;;;4956396;28;20105;-66
2022/11/11 06:18:58;;;;;;;25.85;8.25;;;8.50;99.90;;;;;;4971617;28;20045;-66
2022/11/11 06:21:23;;;;;;;19.65;7.88;;;8.50;99.90;;;;;;4972177;28;20030;-66
2022/11/11 06:23:49;;;;;;;30.40;8.73;;;8.60;99.90;;;;;;4956750;28;20043;-66
2022/11/11 06:26:15;;;;;;;20.40;7.43;;;8.60;99.90;;;;;;4954087;29;20046;-66
2022/11/11 06:28:52;;;;;;;22.40;8.77;;;8.70;99.90;;;;;;4955440;28;20043;-66
2022/11/11 06:31:20;;;;;;;35.42;8.73;;;8.70;99.90;;;;;;4954240;28;20030;-66
2022/11/11 06:33:46;;;;;;;18.15;7.55;;;8.70;99.90;;;;;;4954575;29;20027;-66
2022/11/11 06:36:13;;;;;;;18.30;7.32;;;8.70;99.90;;;;;;4955521;28;20031;-66
2022/11/11 06:38:40;;;;;;;23.58;7.15;;;8.80;99.90;;;;;;4954022;29;20027;-66
2022/11/11 06:41:06;;;;;;;16.35;7.43;;;8.80;99.90;;;;;;4954352;28;20035;-66
2022/11/11 06:43:32;;;;;;;21.83;7.38;;;8.80;99.90;;;;;;4955260;28;20439;-66
2022/11/11 06:45:58;;;;;;;18.65;7.15;;;8.70;99.90;;;;;;4970299;28;20023;-66
2022/11/11 06:48:25;;;;;;;21.77;8.30;;;8.70;99.90;;;;;;4970300;28;20041;-66
2022/11/11 06:50:51;;;;;;;21.30;8.32;;;8.60;99.90;;;;;;4955039;28;20023;-66
2022/11/11 06:53:19;;;;;;;22.38;7.70;;;8.50;99.90;;;;;;4955363;28;20024;-66
2022/11/11 06:55:45;;;;;;;23.25;7.40;;;8.50;99.90;;;;;;4955306;28;20106;-66
2022/11/11 06:58:18;;;;;;;24.85;8.32;;;8.60;99.90;;;;;;4955064;28;20054;-66
2022/11/11 07:00:45;;;;;;;22.42;7.82;;;8.50;99.90;;;;;;4955296;28;20034;-66
2022/11/11 07:03:13;;;;;;;23.10;8.05;;;8.50;99.90;;;;;;4954007;28;20114;-66
2022/11/11 07:05:39;;;;;;;18.48;7.07;;;8.60;99.90;;;;;;4958674;28;20028;-66
2022/11/11 07:08:07;;;;;;;25.73;7.95;;;8.60;99.90;;;;;;4958666;28;20050;-66
2022/11/11 07:10:35;;;;;;;18.38;7.38;;;8.60;99.90;;;;;;4957423;28;20415;-66
2022/11/11 07:13:01;;;;;;;19.65;7.70;;;8.60;99.90;;;;;;4973464;28;20114;-66
2022/11/11 07:15:27;;;;;;;13.93;5.95;;;8.60;99.90;;;;;;4958394;29;20471;-66
2022/11/11 07:17:52;;;;;;;15.95;6.35;;;8.70;99.90;;;;;;4957367;29;20054;-66
2022/11/11 07:20:18;;;;;;;13.52;6.20;;;8.70;99.90;;;;;;4958469;28;20031;-67
2022/11/11 07:22:43;;;;;;;15.23;6.63;;;8.70;99.90;;;;;;4957117;29;20023;-67
2022/11/11 07:25:09;;;;;;;18.42;6.97;;;8.80;99.90;;;;;;4958647;28;20031;-67
2022/11/11 07:27:38;;;;;;;19.55;6.70;;;8.70;99.90;;;;;;4973242;28;20071;-66
2022/11/11 07:30:05;;;;;;;18.40;7.47;;;8.50;99.90;;;;;;4956971;29;20031;-66
2022/11/11 07:32:31;;;;;;;28.10;7.05;;;8.30;99.90;;;;;;4958044;28;20037;-66
2022/11/11 07:34:57;;;;;;;25.08;7.72;;;8.10;99.90;;;;;;4958215;28;20023;-66
2022/11/11 07:37:22;;;;;;;16.95;6.78;;;7.70;99.90;;;;;;4956947;29;20031;-65
2022/11/11 07:39:48;;;;;;;17.67;8.38;;;7.60;99.90;;;;;;4956993;29;20139;-66
2022/11/11 07:42:14;;;;;;;19.48;7.00;;;7.70;99.90;;;;;;4956625;28;20035;-66
2022/11/11 07:44:40;;;;;;;20.13;7.35;;;7.90;99.90;;;;;;4958224;28;20028;-66
2022/11/11 07:47:06;;;;;;;15.88;6.82;;;8.10;99.90;;;;;;4956966;29;20054;-66
2022/11/11 07:49:31;;;;;;;19.75;6.75;;;8.20;99.90;;;;;;4957637;29;20027;-66
2022/11/11 07:51:57;;;;;;;16.08;6.53;;;8.40;99.90;;;;;;4956660;28;20031;-66
2022/11/11 07:54:23;;;;;;;17.45;6.60;;;8.40;99.90;;;;;;4957003;29;20023;-66
2022/11/11 07:56:48;;;;;;;17.42;7.65;;;8.40;99.90;;;;;;4956817;29;20034;-66
2022/11/11 07:59:14;;;;;;;16.13;7.63;;;8.20;99.90;;;;;;4957656;28;20027;-66
2022/11/11 08:01:39;;;;;;;26.05;7.90;;;8.10;99.90;;;;;;4972517;28;20061;-66
2022/11/11 08:04:05;;;;;;;16.13;7.07;;;8.30;99.90;;;;;;4957152;29;20079;-66
2022/11/11 08:06:30;;;;;;;19.02;7.03;;;8.40;99.90;;;;;;4956349;29;20055;-66
2022/11/11 08:08:56;;;;;;;16.73;7.15;;;8.30;99.90;;;;;;4958147;28;20031;-67
2022/11/11 08:14:05;;;;;;;18.30;8.38;;;8.30;99.90;;;;;;4957979;28;20038;-67
2022/11/11 08:16:31;;;;;;;17.58;7.55;;;8.00;99.90;;;;;;4956284;29;20023;-67
2022/11/11 08:18:57;;;;;;;32.22;9.07;;;8.10;99.90;;;;;;4957452;28;20023;-68
2022/11/11 08:21:23;;;;;;;19.73;8.40;;;8.20;99.90;;;;;;4972197;28;20394;-68
2022/11/11 08:23:50;;;;;;;32.70;7.90;;;8.00;99.90;;;;;;4956093;29;20023;-67
2022/11/11 08:26:17;;;;;;;43.03;9.13;;;7.90;99.90;;;;;;4955758;29;20043;-66
2022/11/11 08:28:42;;;;;;;23.55;7.97;;;7.60;99.90;;;;;;4955753;29;20023;-67
2022/11/11 08:31:08;;;;;;;21.42;7.00;;;7.80;99.90;;;;;;4957159;28;20024;-67
2022/11/11 08:33:34;;;;;;;13.15;6.53;;;8.00;99.90;;;;;;4957141;28;20047;-67
2022/11/11 08:36:01;;;;;;;15.82;7.68;;;8.00;99.90;;;;;;4972053;28;20035;-67
2022/11/11 08:38:26;;;;;;;15.55;6.75;;;7.80;99.90;;;;;;4957085;28;20106;-67
2022/11/11 08:40:53;;;;;;;21.92;7.50;;;7.70;99.90;;;;;;4955548;28;20184;-67
2022/11/11 08:43:19;;;;;;;17.90;7.82;;;7.80;99.90;;;;;;4956559;29;20383;-67
2022/11/11 08:45:45;;;;;;;16.63;7.00;;;7.90;99.90;;;;;;4955944;29;20027;-67
2022/11/11 08:48:11;;;;;;;17.25;7.68;;;8.00;99.90;;;;;;4957225;28;20027;-67
2022/11/11 08:50:40;;;;;;;16.35;6.90;;;8.10;99.90;;;;;;4971977;28;20027;-67
2022/11/11 08:53:07;;;;;;;20.50;7.88;;;8.20;99.90;;;;;;4955917;29;20035;-68
2022/11/11 08:55:34;;;;;;;22.45;8.23;;;8.20;99.90;;;;;;4955555;29;20027;-67
2022/11/11 08:58:03;;;;;;;23.40;8.95;;;8.20;99.90;;;;;;4955523;29;20491;-67
2022/11/11 09:00:30;;;;;;;17.15;7.10;;;8.30;99.90;;;;;;4955403;28;20113;-67
2022/11/11 09:03:03;;;;;;;17.08;7.93;;;8.40;99.90;;;;;;4956739;28;20035;-67
2022/11/11 09:05:29;;;;;;;15.75;7.72;;;8.50;99.90;;;;;;4971390;28;20023;-67
2022/11/11 09:07:55;;;;;;;19.83;8.68;;;8.60;99.90;;;;;;4971379;28;20019;-67
2022/11/11 09:10:21;;;;;;;20.48;8.38;;;8.60;99.90;;;;;;4955192;28;20026;-67
2022/11/11 09:12:47;;;;;;;19.67;9.02;;;8.50;99.90;;;;;;4956471;28;20502;-67
2022/11/11 09:15:12;;;;;;;22.17;9.23;;;8.60;99.90;;;;;;4955552;29;20023;-67
2022/11/11 09:17:38;;;;;;;25.45;8.68;;;8.70;99.90;;;;;;4956404;28;20023;-67
2022/11/11 09:20:04;;;;;;;24.05;8.77;;;8.60;99.90;;;;;;4955948;29;20062;-67
2022/11/11 09:22:29;;;;;;;19.63;9.30;;;8.60;99.90;;;;;;4955266;28;20035;-67
2022/11/11 09:24:55;;;;;;;19.38;8.13;;;8.50;99.90;;;;;;4955014;29;20077;-67
2022/11/11 09:27:21;;;;;;;27.85;9.40;;;8.60;99.90;;;;;;4954369;28;20398;-67
2022/11/11 09:29:46;;;;;;;21.42;8.85;;;8.50;99.90;;;;;;4971004;28;20070;-67
2022/11/11 09:32:12;;;;;;;23.98;9.75;;;8.50;99.90;;;;;;4955204;28;20051;-67
2022/11/11 09:34:37;;;;;;;22.02;9.20;;;8.60;99.90;;;;;;4954874;29;20020;-67
2022/11/11 09:37:03;;;;;;;23.42;9.38;;;8.60;99.90;;;;;;4955978;28;20077;-67
2022/11/11 09:39:28;;;;;;;19.75;7.90;;;8.60;99.90;;;;;;4954714;29;20030;-67
2022/11/11 09:42:12;;;;;;;19.77;8.15;;;8.70;99.90;;;;;;4954816;28;20035;-67
2022/11/11 09:44:47;;;;;;;21.38;8.60;;;8.90;99.90;;;;;;4970679;28;20058;-67
2022/11/11 09:47:20;;;;;;;19.27;8.63;;;9.00;99.90;;;;;;4970772;28;20097;-67
2022/11/11 09:50:09;;;;;;;21.15;8.38;;;9.00;99.90;;;;;;4955836;28;20065;-67
2022/11/11 09:52:38;;;;;;;23.55;9.77;;;9.10;99.90;;;;;;4954427;28;20050;-67
2022/11/11 09:55:21;;;;;;;18.95;7.88;;;9.10;99.90;;;;;;4970909;28;20118;-68
2022/11/11 09:57:52;;;;;;;20.55;8.35;;;9.20;99.90;;;;;;4955640;28;20085;-68
2022/11/11 10:00:23;;;;;;;17.75;7.85;;;9.20;99.90;;;;;;4954651;28;20023;-68
2022/11/11 10:02:52;;;;;;;20.63;8.40;;;9.20;99.90;;;;;;4970411;28;20032;-67
2022/11/11 10:05:31;;;;;;;22.17;9.02;;;9.30;99.90;;;;;;4955702;28;20077;-67
2022/11/11 10:08:04;;;;;;;21.40;9.07;;;9.20;99.90;;;;;;4970539;28;20391;-67
2022/11/11 10:10:46;;;;;;;19.92;9.45;;;9.00;99.90;;;;;;4955361;28;20031;-67
2022/11/11 10:13:25;;;;;;;19.90;8.93;;;9.10;99.90;;;;;;4955051;29;20022;-67
2022/11/11 10:16:02;;;;;;;17.13;8.35;;;9.10;99.90;;;;;;4954219;29;20074;-67
2022/11/11 10:18:56;;;;;;;22.85;9.00;;;9.10;99.90;;;;;;4955546;28;20614;-67
2022/11/11 10:21:42;;;;;;;26.50;9.18;;;9.20;99.90;;;;;;4970802;28;20027;-68
2022/11/11 10:24:21;;;;;;;23.70;10.13;;;9.20;99.90;;;;;;4954123;29;20059;-68
2022/11/11 10:26:47;;;;;;;23.42;9.90;;;9.10;99.90;;;;;;4955281;29;20491;-68
2022/11/11 10:29:18;;;;;;;19.55;9.52;;;9.00;99.90;;;;;;4955253;28;20046;-68
2022/11/11 10:31:47;;;;;;;24.25;10.38;;;9.00;99.90;;;;;;4953958;28;20023;-67
2022/11/11 10:34:16;;;;;;;31.98;11.07;;;8.90;99.90;;;;;;4954032;29;20023;-67
2022/11/11 10:36:46;;;;;;;28.90;10.70;;;8.70;99.90;;;;;;4954090;29;20028;-67
2022/11/11 10:39:19;;;;;;;28.80;11.02;;;8.70;99.90;;;;;;4955986;28;20066;-67
2022/11/11 10:41:50;;;;;;;24.52;10.60;;;8.70;99.90;;;;;;4957825;28;20035;-67
2022/11/11 10:44:26;;;;;;;24.48;10.60;;;8.90;99.90;;;;;;4957882;29;20019;-67
2022/11/11 10:46:58;;;;;;;29.75;11.38;;;9.00;99.90;;;;;;4957924;29;20028;-67
2022/11/11 10:49:26;;;;;;;24.67;9.45;;;9.20;99.90;;;;;;4958190;29;20051;-67
2022/11/11 10:52:07;;;;;;;28.27;9.88;;;9.30;99.90;;;;;;4973833;28;20035;-67
2022/11/11 10:55:02;;;;;;;24.65;10.18;;;9.10;99.90;;;;;;4957826;29;20038;-67
2022/11/11 10:57:31;;;;;;;27.40;10.15;;;9.00;99.90;;;;;;4958521;29;20052;-67
2022/11/11 11:00:05;;;;;;;23.15;10.30;;;9.00;99.90;;;;;;4958520;29;20027;-67
2022/11/11 11:03:01;;;;;;;20.55;9.45;;;8.90;99.90;;;;;;4958458;28;20031;-67
2022/11/11 11:05:41;;;;;;;23.67;9.70;;;9.00;99.90;;;;;;4958686;29;20034;-67
2022/11/11 11:08:20;;;;;;;25.50;10.35;;;9.10;99.90;;;;;;4957490;29;20114;-67
2022/11/11 11:11:00;;;;;;;25.33;9.98;;;9.10;99.90;;;;;;4957249;28;20020;-67
2022/11/11 11:13:44;;;;;;;23.55;9.70;;;8.80;99.90;;;;;;4974031;28;20075;-67
2022/11/11 11:16:21;;;;;;;24.48;9.52;;;8.80;99.90;;;;;;4957374;29;20199;-67
2022/11/11 11:19:13;;;;;;;24.77;10.50;;;8.70;99.90;;;;;;4958463;28;20035;-67
2022/11/11 11:21:51;;;;;;;26.20;9.07;;;8.70;99.90;;;;;;4957997;28;20095;-67
2022/11/11 11:24:31;;;;;;;23.73;8.68;;;8.80;99.90;;;;;;4957145;29;20031;-67
2022/11/11 11:26:59;;;;;;;24.60;9.82;;;8.70;99.90;;;;;;4957506;29;20078;-67
2022/11/11 11:29:26;;;;;;;24.38;8.75;;;8.70;99.90;;;;;;4973152;28;20027;-67
2022/11/11 11:31:53;;;;;;;21.17;8.77;;;8.80;99.90;;;;;;4958242;28;20020;-67
2022/11/11 11:34:18;;;;;;;21.08;8.73;;;8.80;99.90;;;;;;4957343;29;20019;-67
2022/11/11 11:36:58;;;;;;;21.50;8.77;;;8.90;99.90;;;;;;4958240;28;20031;-67
2022/11/11 11:39:35;;;;;;;29.23;9.68;;;9.10;99.90;;;;;;4958181;28;20028;-67
2022/11/11 11:42:01;;;;;;;20.45;8.35;;;9.30;99.90;;;;;;4956680;28;20039;-67
2022/11/11 11:44:32;;;;;;;19.73;9.20;;;9.20;99.90;;;;;;4957524;29;20123;-67
2022/11/11 11:47:40;;;;;;;19.70;8.93;;;9.20;99.90;;;;;;4957055;29;20030;-67
2022/11/11 11:50:45;;;;;;;19.05;8.90;;;9.20;99.90;;;;;;4973216;28;20023;-67
2022/11/11 11:53:26;;;;;;;19.05;8.68;;;9.20;99.90;;;;;;4972768;28;20054;-67
2022/11/11 11:56:03;;;;;;;20.25;8.02;;;9.30;99.90;;;;;;4956703;29;20031;-67
2022/11/11 11:58:59;;;;;;;21.00;9.18;;;9.30;99.90;;;;;;4958165;28;20081;-67
2022/11/11 12:02:04;;;;;;;22.63;9.15;;;9.30;99.90;;;;;;4957997;28;20121;-67
2022/11/11 12:04:45;;;;;;;18.60;7.72;;;9.10;99.90;;;;;;4957986;28;20037;-67
2022/11/11 12:07:18;;;;;;;26.25;10.75;;;9.20;99.90;;;;;;4972537;28;20031;-67
2022/11/11 12:10:19;;;;;;;22.70;10.02;;;9.30;99.90;;;;;;4957628;29;20027;-67
2022/11/11 12:12:52;;;;;;;22.27;9.35;;;9.10;99.90;;;;;;4920123;29;20039;-67
2022/11/11 12:15:38;;;;;;;29.30;9.57;;;9.00;99.90;;;;;;4919337;29;20019;-67
2022/11/11 12:18:21;;;;;;;25.13;10.48;;;9.00;99.90;;;;;;4919681;29;20163;-67
2022/11/11 12:20:54;;;;;;;21.33;8.60;;;9.20;99.90;;;;;;4920193;29;20028;-67
2022/11/11 12:23:38;;;;;;;26.13;11.32;;;9.30;99.90;;;;;;4920371;29;20055;-67
2022/11/11 12:26:28;;;;;;;25.80;11.10;;;9.30;99.90;;;;;;4936100;29;20031;-67
2022/11/11 12:29:06;;;;;;;25.35;10.07;;;9.60;99.90;;;;;;4936115;29;20071;-67
2022/11/11 12:31:35;;;;;;;28.05;10.55;;;9.70;99.90;;;;;;4920116;29;20141;-67
2022/11/11 12:34:17;;;;;;;24.38;9.05;;;9.40;99.90;;;;;;4935907;29;20047;-67
2022/11/11 12:37:15;;;;;;;24.80;9.45;;;9.60;99.90;;;;;;4919975;29;20042;-67
2022/11/11 12:39:52;;;;;;;26.35;9.70;;;9.70;99.90;;;;;;4920295;29;20036;-67
2022/11/11 12:42:23;;;;;;;24.25;9.63;;;9.70;99.90;;;;;;4935751;29;20144;-67
2022/11/11 12:45:04;;;;;;;28.92;10.35;;;9.60;99.90;;;;;;4919710;29;20038;-67
2022/11/11 12:48:08;;;;;;;26.00;11.52;;;9.40;99.90;;;;;;4936119;29;20048;-67
2022/11/11 12:50:57;;;;;;;22.85;9.75;;;9.20;99.90;;;;;;4934715;28;20046;-67
2022/11/11 12:53:43;;;;;;;29.27;10.75;;;9.20;99.90;;;;;;4920318;29;20071;-67
2022/11/11 12:56:29;;;;;;;34.03;12.63;;;9.50;99.90;;;;;;4956812;29;20031;-67
2022/11/11 12:59:19;;;;;;;31.08;11.80;;;9.40;99.90;;;;;;4955946;29;20027;-68
2022/11/11 13:02:07;;;;;;;30.88;12.55;;;9.50;99.90;;;;;;4955072;28;20035;-68
2022/11/11 13:04:56;;;;;;;32.90;11.88;;;9.80;99.90;;;;;;4946318;29;20039;-68
2022/11/11 13:07:52;;;;;;;28.52;12.27;;;9.80;99.90;;;;;;4955318;29;20027;-68
2022/11/11 13:10:45;;;;;;;35.22;12.93;;;10.00;99.90;;;;;;4954449;28;20110;-68
2022/11/11 13:13:39;;;;;;;27.73;11.48;;;10.10;99.90;;;;;;4956582;29;20035;-68
2022/11/11 13:16:07;;;;;;;31.10;12.23;;;10.00;99.90;;;;;;4955522;29;20039;-68
2022/11/11 13:18:52;;;;;;;31.98;11.82;;;10.00;99.90;;;;;;4956282;29;20037;-67
2022/11/11 13:21:43;;;;;;;33.60;12.30;;;9.80;99.90;;;;;;4955335;28;20031;-68
2022/11/11 13:24:13;;;;;;;32.45;11.60;;;9.70;99.90;;;;;;4956229;29;20051;-68
2022/11/11 13:26:45;;;;;;;33.40;14.00;;;9.50;99.90;;;;;;4954999;29;20114;-67
2022/11/11 13:29:44;;;;;;;39.20;13.88;;;9.50;99.90;;;;;;4955296;29;20031;-67
2022/11/11 13:32:13;;;;;;;38.03;12.52;;;9.30;99.90;;;;;;4956081;28;20027;-67
2022/11/11 13:34:40;;;;;;;43.78;14.65;;;9.20;99.90;;;;;;4954731;29;20035;-67
2022/11/11 13:37:09;;;;;;;46.83;15.18;;;9.10;99.90;;;;;;4956015;29;20027;-68
2022/11/11 13:39:46;;;;;;;45.90;15.10;;;9.00;99.90;;;;;;4954632;29;20037;-68
2022/11/11 13:42:21;;;;;;;47.13;14.43;;;9.00;99.90;;;;;;4955967;28;20035;-67
2022/11/11 13:44:55;;;;;;;38.55;13.52;;;9.30;99.90;;;;;;4955216;29;20031;-67
2022/11/11 13:47:33;;;;;;;40.88;13.10;;;9.20;99.90;;;;;;4954848;29;20062;-67
2022/11/11 13:50:04;;;;;;;40.03;14.18;;;9.30;99.90;;;;;;4954538;29;20126;-68
2022/11/11 13:52:43;;;;;;;40.58;13.85;;;9.20;99.90;;;;;;4955280;28;20051;-67
2022/11/11 13:55:25;;;;;;;39.00;13.35;;;9.20;99.90;;;;;;4955073;29;20042;-67
2022/11/11 13:57:51;;;;;;;37.45;12.80;;;9.10;99.90;;;;;;4955330;29;20027;-67
2022/11/11 14:00:17;;;;;;;45.72;13.90;;;9.00;99.90;;;;;;4954614;28;20035;-67
2022/11/11 14:02:43;;;;;;;35.08;12.68;;;9.10;99.90;;;;;;4954706;29;20538;-67
2022/11/11 14:05:09;;;;;;;47.33;16.10;;;9.30;99.90;;;;;;4954376;29;20055;-67
2022/11/11 14:07:43;;;;;;;38.15;13.25;;;9.40;99.90;;;;;;4955478;29;20062;-67
2022/11/11 14:10:30;;;;;;;45.00;13.70;;;9.50;99.90;;;;;;4953762;29;20023;-67
2022/11/11 14:13:22;;;;;;;42.38;13.57;;;9.60;99.90;;;;;;4953834;28;20034;-66
2022/11/11 14:15:49;;;;;;;32.80;12.95;;;9.80;99.90;;;;;;4955345;28;20019;-67
2022/11/11 14:18:18;;;;;;;38.50;12.85;;;9.90;99.90;;;;;;4954590;29;20037;-67